createdAt,value
2022-11-27T00:04:12.789Z,86.35
2022-11-27T00:10:35.564Z,86.39
2022-11-27T00:16:55.696Z,86.19
2022-11-27T00:23:18.552Z,86.11
2022-11-27T00:29:38.632Z,86
2022-11-27T00:36:01.573Z,86.26
2022-11-27T00:42:21.625Z,86.07
2022-11-27T00:48:44.652Z,86.57
2022-11-27T00:55:04.738Z,86.17
2022-11-27T01:01:27.706Z,86.35
2022-11-27T01:07:47.727Z,86.49
2022-11-27T01:14:10.670Z,86.73
2022-11-27T01:20:30.640Z,86.74
2022-11-27T01:26:53.604Z,86.28
2022-11-27T01:33:13.666Z,85.87
2022-11-27T01:39:37.771Z,85.89
2022-11-27T01:45:57.623Z,85.86
2022-11-27T01:52:20.587Z,85.97
2022-11-27T01:58:40.611Z,85.6
2022-11-27T02:05:03.558Z,85.49
2022-11-27T02:11:23.669Z,85.5
2022-11-27T02:17:46.596Z,85.64
2022-11-27T02:24:06.672Z,85.64
2022-11-27T02:30:29.621Z,85.72
2022-11-27T02:36:49.632Z,85.72
2022-11-27T02:43:12.795Z,85.74
2022-11-27T02:49:32.631Z,85.62
2022-11-27T02:55:55.644Z,85.81
2022-11-27T03:02:15.784Z,85.9
2022-11-27T03:08:38.601Z,85.79
2022-11-27T03:14:58.623Z,85.66
2022-11-27T03:21:21.670Z,85.81
2022-11-27T03:27:41.675Z,85.69
2022-11-27T03:34:04.613Z,85.91
2022-11-27T03:40:24.714Z,85.82
2022-11-27T03:46:47.656Z,85.63
2022-11-27T03:53:07.608Z,85.86
2022-11-27T03:59:30.756Z,85.85
2022-11-27T04:05:50.597Z,86.17
2022-11-27T04:22:18.603Z,86.23
2022-11-27T04:28:38.559Z,85.91
2022-11-27T04:35:01.578Z,85.72
2022-11-27T04:41:21.688Z,85.67
2022-11-27T04:47:44.696Z,85.72
2022-11-27T04:54:04.579Z,85.58
2022-11-27T05:00:27.762Z,85.33
2022-11-27T05:06:47.572Z,85.39
2022-11-27T05:13:10.581Z,85.5
2022-11-27T05:19:30.726Z,85.55
2022-11-27T05:25:53.619Z,85.3
2022-11-27T05:32:13.580Z,85.48
2022-11-27T05:38:36.717Z,85.31
2022-11-27T05:44:58.388Z,85.59
2022-11-27T05:51:19.641Z,85.54
2022-11-27T05:57:39.667Z,85.53
2022-11-27T06:04:02.608Z,85.54
2022-11-27T06:10:22.620Z,85.66
2022-11-27T06:16:45.780Z,85.72
2022-11-27T06:23:05.574Z,85.82
2022-11-27T06:29:28.594Z,85.85
2022-11-27T06:35:48.735Z,86.09
2022-11-27T06:42:11.598Z,86.13
2022-11-27T06:48:31.554Z,85.71
2022-11-27T06:55:00.596Z,85.23
2022-11-27T07:01:14.751Z,84.93
2022-11-27T07:07:42.433Z,84.69
2022-11-27T07:13:57.595Z,84.41
2022-11-27T07:20:20.694Z,83.94
2022-11-27T07:26:40.627Z,83.68
2022-11-27T07:33:03.583Z,83.39
2022-11-27T07:39:39.672Z,83.23
2022-11-27T07:45:46.670Z,83.04
2022-11-27T07:52:06.622Z,83.29
2022-11-27T07:58:29.707Z,82.91
2022-11-27T08:04:49.692Z,82.75
2022-11-27T08:11:12.561Z,82.45
2022-11-27T08:17:32.734Z,82.08
2022-11-27T08:23:55.575Z,81.7
2022-11-27T08:30:15.603Z,81.59
2022-11-27T08:36:38.728Z,81.28
2022-11-27T08:42:58.641Z,80.88
2022-11-27T08:49:21.656Z,81.27
2022-11-27T08:55:41.719Z,81.46
2022-11-27T09:02:04.636Z,80.19
2022-11-27T09:08:24.585Z,80.24
2022-11-27T09:31:18.568Z,78.24
2022-11-27T09:37:35.697Z,77.64
2022-11-27T09:43:55.693Z,77.59
2022-11-27T09:50:18.565Z,77.27
2022-11-27T09:56:38.761Z,77.25
2022-11-27T10:03:01.815Z,76.12
2022-11-27T10:09:21.586Z,76.03
2022-11-27T10:15:44.712Z,74.81
2022-11-27T10:22:04.578Z,74.65
2022-11-27T10:28:27.609Z,73.51
2022-11-27T10:34:48.724Z,72.12
2022-11-27T10:41:15.052Z,71.29
2022-11-27T23:24:15.676Z,81.06
2022-11-27T23:30:35.570Z,81.6
2022-11-27T23:36:58.554Z,81.46
2022-11-27T23:43:18.704Z,81.48
2022-11-27T23:49:41.654Z,83.33
2022-11-27T23:56:01.571Z,84.35
